Time;durP1;ratioP1;P1;durP2;ratioP2;P2;SDS_P1;SDS_P2;PMS_P1;PMS_P2;Temp;Humidity;BMP_temperature;BMP_pressure;BME280_temperature;BME280_humidity;BME280_pressure;Samples;Min_cycle;Max_cycle;Signal;HPM_P1;HPM_P2
2022/06/24 00:00:17;;;;;;;;;6.67;6.67;;;;;24.48;50.50;100358.19;5008773;28;45609;-72
2022/06/24 00:02:49;;;;;;;;;8.00;7.00;;;;;24.44;51.78;100380.72;5003598;28;45449;-73
2022/06/24 00:05:15;;;;;;;;;6.00;6.00;;;;;24.39;52.06;100388.16;5009955;28;48062;-74
2022/06/24 00:07:51;;;;;;;;;5.33;5.33;;;;;24.30;52.90;100388.75;5008993;28;45420;-74
2022/06/24 00:10:40;;;;;;;;;5.00;5.00;;;;;24.19;52.48;100384.03;5008549;28;45545;-73
2022/06/24 00:13:07;;;;;;;;;6.33;6.33;;;;;24.10;52.77;100381.91;5001887;28;45567;-73
2022/06/24 00:15:37;;;;;;;;;5.00;5.00;;;;;23.91;53.10;100374.97;5011341;28;46184;-73
2022/06/24 00:18:19;;;;;;;;;7.00;6.00;;;;;23.86;53.77;100368.19;5001486;28;45934;-72
2022/06/24 00:20:50;;;;;;;;;6.00;6.00;;;;;24.05;52.89;100400.91;4999783;28;45821;-73
2022/06/24 00:23:25;;;;;;;;;6.67;6.67;;;;;23.95;53.47;100383.69;4997139;28;45524;-74
2022/06/24 00:25:51;;;;;;;;;8.33;8.00;;;;;24.03;53.46;100400.13;4997587;28;47924;-73
2022/06/24 00:28:23;;;;;;;;;4.00;4.00;;;;;24.07;53.19;100388.31;5001118;28;45395;-73
2022/06/24 00:30:57;;;;;;;;;5.00;5.00;;;;;24.13;53.12;100390.63;5001584;28;45576;-72
2022/06/24 00:33:25;;;;;;;;;6.00;5.00;;;;;24.22;52.73;100385.66;5003382;28;45341;-73
2022/06/24 00:35:56;;;;;;;;;6.00;5.00;;;;;24.25;52.62;100399.72;5009360;28;45527;-74
2022/06/24 00:38:36;;;;;;;;;6.33;5.00;;;;;24.25;52.26;100391.69;5014527;28;45283;-74
2022/06/24 00:41:07;;;;;;;;;5.00;5.00;;;;;24.20;52.64;100385.75;5018829;28;45466;-73
2022/06/24 00:43:55;;;;;;;;;3.00;3.00;;;;;24.13;52.48;100365.66;5000639;28;45479;-76
2022/06/24 00:46:27;;;;;;;;;4.67;4.67;;;;;24.21;52.43;100390.16;5010327;28;45429;-76
2022/06/24 00:48:58;;;;;;;;;5.00;5.00;;;;;24.26;52.61;100396.09;5014499;28;45462;-75
2022/06/24 00:51:37;;;;;;;;;5.67;5.67;;;;;24.33;52.39;100397.44;5016074;28;45431;-72
2022/06/24 00:54:12;;;;;;;;;4.00;4.00;;;;;24.17;51.82;100350.28;5021076;28;45316;-75
2022/06/24 00:56:47;;;;;;;;;7.67;5.67;;;;;24.30;51.65;100367.34;5020150;28;45612;-73
2022/06/24 00:59:14;;;;;;;;;4.00;4.00;;;;;24.46;51.52;100389.53;5002766;28;45329;-73
2022/06/24 01:01:42;;;;;;;;;4.00;4.00;;;;;24.49;51.44;100400.09;5016975;28;45384;-73
2022/06/24 01:04:10;;;;;;;;;4.00;4.00;;;;;24.19;51.50;100343.03;5017180;28;45349;-73
2022/06/24 01:06:42;;;;;;;;;4.00;4.00;;;;;24.23;50.97;100348.13;5018096;28;46352;-75
2022/06/24 01:09:08;;;;;;;;;3.33;2.33;;;;;24.55;50.99;100397.00;5017574;28;45295;-73
2022/06/24 01:11:46;;;;;;;;;5.67;5.67;;;;;24.47;50.72;100377.88;5016337;28;45256;-74
2022/06/24 01:14:13;;;;;;;;;4.33;4.33;;;;;24.62;51.02;100389.47;5015679;28;45494;-73
2022/06/24 01:16:39;;;;;;;;;4.00;4.00;;;;;24.55;50.23;100375.59;5015264;28;46252;-74
2022/06/24 01:19:08;;;;;;;;;5.33;5.00;;;;;24.66;50.56;100395.50;5014611;28;45486;-74
2022/06/24 01:21:40;;;;;;;;;3.67;3.67;;;;;24.59;50.72;100391.50;5014672;28;45371;-73
2022/06/24 01:24:09;;;;;;;;;4.00;4.00;;;;;24.45;51.09;100378.91;5018396;28;45399;-72
2022/06/24 01:26:40;;;;;;;;;6.33;4.33;;;;;24.43;50.70;100391.53;5014568;28;46613;-72
2022/06/24 01:29:06;;;;;;;;;5.33;5.00;;;;;24.39;51.10;100396.19;5012921;28;45395;-74
2022/06/24 01:31:38;;;;;;;;;4.00;4.00;;;;;24.36;51.17;100396.38;5014789;28;45435;-73
2022/06/24 04:34:11;;;;;;;;;6.33;6.33;;;;;20.47;69.15;100360.72;5067702;28;45535;-74
2022/06/24 04:36:37;;;;;;;;;8.33;6.33;;;;;20.42;69.47;100357.41;5051017;28;45437;-70
2022/06/24 04:39:02;;;;;;;;;9.00;7.67;;;;;20.67;69.09;100370.50;5050486;28;45477;-71
2022/06/24 04:41:29;;;;;;;;;6.00;6.00;;;;;20.93;68.90;100379.94;5049762;28;45345;-71
2022/06/24 04:43:54;;;;;;;;;8.00;7.00;;;;;20.92;68.93;100350.72;5046466;28;46689;-72
2022/06/24 04:46:21;;;;;;;;;9.00;8.00;;;;;21.25;68.03;100372.22;5039064;28;45425;-70
2022/06/24 04:48:46;;;;;;;;;7.00;7.00;;;;;21.28;66.95;100355.22;5050633;28;45727;-69
2022/06/24 04:51:12;;;;;;;;;8.33;6.67;;;;;21.51;67.15;100375.47;5050845;28;45505;-70
2022/06/24 04:53:37;;;;;;;;;7.67;7.00;;;;;21.59;65.93;100342.16;5052217;28;46258;-70
2022/06/24 04:56:03;;;;;;;;;6.67;6.67;;;;;21.95;65.23;100364.38;5051870;28;45452;-69
2022/06/24 04:58:29;;;;;;;;;6.67;6.67;;;;;22.05;64.86;100362.97;5050979;28;45505;-69
2022/06/24 05:00:55;;;;;;;;;7.00;7.00;;;;;22.05;64.18;100362.97;5050929;28;45322;-69
2022/06/24 05:03:20;;;;;;;;;8.67;8.00;;;;;22.19;64.10;100371.09;5054231;28;46054;-70
2022/06/24 05:05:46;;;;;;;;;7.33;7.33;;;;;22.09;63.72;100355.63;5053365;28;45523;-69
2022/06/24 05:08:11;;;;;;;;;7.33;6.33;;;;;21.95;63.48;100324.38;5049112;28;45502;-69
2022/06/24 05:10:37;;;;;;;;;7.33;7.33;;;;;22.29;63.70;100378.66;5050806;28;45484;-70
2022/06/24 05:13:03;;;;;;;;;9.67;8.00;;;;;22.39;63.30;100374.56;5049814;28;45961;-70
2022/06/24 05:15:28;;;;;;;;;7.33;6.33;;;;;22.42;63.46;100377.06;5040072;28;45394;-70
2022/06/24 05:17:54;;;;;;;;;8.67;7.33;;;;;22.44;62.83;100364.50;5033082;28;45288;-70
2022/06/24 05:20:20;;;;;;;;;8.00;7.67;;;;;22.57;62.58;100368.25;5048802;28;45559;-73
2022/06/24 05:22:46;;;;;;;;;8.33;7.33;;;;;22.48;62.73;100367.88;5036781;28;46038;-71
2022/06/24 05:25:11;;;;;;;;;7.67;7.00;;;;;22.59;62.26;100365.47;5050234;28;45563;-72
2022/06/24 05:27:37;;;;;;;;;9.00;9.00;;;;;22.60;62.16;100361.88;5050431;28;45497;-71
2022/06/24 05:30:03;;;;;;;;;8.33;8.33;;;;;22.73;62.05;100373.63;5036235;28;45434;-71
2022/06/24 05:32:29;;;;;;;;;9.33;8.00;;;;;22.58;61.38;100331.72;5056209;28;46249;-71
2022/06/24 05:34:56;;;;;;;;;8.67;6.33;;;;;22.78;61.41;100368.00;5058019;28;46839;-71
2022/06/24 05:37:21;;;;;;;;;9.00;8.00;;;;;22.91;61.03;100370.88;5070816;28;45950;-70
2022/06/24 05:39:47;;;;;;;;;9.33;9.33;;;;;22.95;61.07;100378.66;5072297;27;45498;-71
2022/06/24 05:42:12;;;;;;;;;9.67;8.00;;;;;23.00;60.45;100373.09;5070540;27;45351;-71
2022/06/24 05:44:38;;;;;;;;;7.33;7.00;;;;;22.95;60.45;100373.31;5065139;28;45265;-74
2022/06/24 05:47:04;;;;;;;;;9.00;9.00;;;;;22.94;60.94;100384.91;5060806;28;45272;-72
2022/06/24 05:49:29;;;;;;;;;7.33;6.67;;;;;22.84;60.58;100371.22;5059712;28;45297;-73
2022/06/24 05:52:07;;;;;;;;;9.00;9.00;;;;;22.89;60.39;100380.78;5057112;28;45526;-71
2022/06/24 05:57:20;;;;;;;;;9.33;9.33;;;;;22.86;60.26;100373.81;5056784;28;45862;-70
2022/06/24 05:59:46;;;;;;;;;10.33;8.67;;;;;22.99;60.00;100374.00;5056552;28;45828;-70
2022/06/24 06:02:12;;;;;;;;;10.00;9.00;;;;;23.08;59.73;100384.19;5059415;28;46144;-71
2022/06/24 06:04:37;;;;;;;;;7.00;7.00;;;;;22.96;59.88;100374.16;5038713;28;45276;-69
2022/06/24 06:07:03;;;;;;;;;10.67;8.00;;;;;23.02;59.86;100381.88;5056312;28;45486;-70
2022/06/24 06:09:29;;;;;;;;;8.00;8.00;;;;;23.06;59.50;100384.28;5028235;28;45411;-73
2022/06/24 06:11:56;;;;;;;;;9.00;8.67;;;;;23.05;59.36;100387.03;5062001;28;45399;-73
2022/06/24 06:14:21;;;;;;;;;8.00;7.00;;;;;23.00;59.12;100402.47;5061240;28;45528;-73
2022/06/24 06:16:47;;;;;;;;;9.67;8.00;;;;;22.93;59.37;100395.69;5064294;28;45433;-72
2022/06/24 06:19:13;;;;;;;;;10.67;8.00;;;;;22.87;58.82;100386.19;5063147;28;45401;-74
2022/06/24 06:21:39;;;;;;;;;14.33;11.67;;;;;22.78;59.45;100378.69;5044581;28;47915;-74
2022/06/24 06:24:05;;;;;;;;;10.33;9.00;;;;;22.88;59.30;100403.09;5062008;28;45322;-75
2022/06/24 06:26:31;;;;;;;;;8.67;8.67;;;;;22.88;59.34;100403.97;5041207;28;45437;-71
2022/06/24 06:28:56;;;;;;;;;10.67;8.00;;;;;22.60;59.10;100344.03;5056931;28;45540;-71
2022/06/24 06:31:22;;;;;;;;;8.00;8.00;;;;;22.98;58.93;100397.19;5037202;28;47789;-71
2022/06/24 06:33:48;;;;;;;;;9.00;7.00;;;;;23.10;58.81;100409.00;5035993;28;45923;-71
2022/06/24 06:36:15;;;;;;;;;6.00;6.00;;;;;23.17;58.52;100409.53;5045118;28;45354;-72
2022/06/24 06:38:42;;;;;;;;;8.67;6.00;;;;;23.22;58.29;100412.81;5038252;28;45505;-71
2022/06/24 06:41:08;;;;;;;;;8.00;8.00;;;;;23.14;58.33;100397.22;5055674;28;45473;-69
2022/06/24 06:43:34;;;;;;;;;8.00;6.00;;;;;23.17;58.05;100404.19;5056196;28;45860;-70
2022/06/24 06:46:00;;;;;;;;;8.00;8.00;;;;;23.12;58.49;100412.47;5055785;28;45416;-72
2022/06/24 06:48:26;;;;;;;;;7.33;7.33;;;;;23.04;58.74;100415.56;5037576;28;45459;-71
2022/06/24 06:50:59;;;;;;;;;6.33;5.00;;;;;23.04;58.65;100410.22;5055393;28;45860;-71
2022/06/24 06:53:26;;;;;;;;;5.33;5.33;;;;;22.98;58.65;100397.19;5055446;28;46093;-70
2022/06/24 06:55:53;;;;;;;;;6.33;6.33;;;;;23.11;58.43;100421.41;5053442;28;45359;-70
2022/06/24 06:58:19;;;;;;;;;8.00;8.00;;;;;23.16;58.03;100416.69;5058547;28;45448;-70
2022/06/24 07:00:45;;;;;;;;;7.00;6.33;;;;;23.11;58.46;100418.72;5055460;28;46153;-72
2022/06/24 07:03:11;;;;;;;;;6.67;6.00;;;;;23.20;58.38;100412.88;5037046;28;45327;-73
2022/06/24 07:05:37;;;;;;;;;6.00;6.00;;;;;23.15;57.44;100380.22;5055786;28;45583;-71
2022/06/24 07:08:04;;;;;;;;;6.00;6.00;;;;;23.29;57.14;100398.16;5054633;28;45531;-71
2022/06/24 07:10:33;;;;;;;;;8.67;8.67;;;;;23.33;57.41;100404.22;5049368;28;45517;-74
2022/06/24 07:12:59;;;;;;;;;7.00;7.00;;;;;23.35;57.44;100391.59;5037621;28;45482;-69
2022/06/24 07:15:24;;;;;;;;;7.00;6.00;;;;;23.17;57.38;100366.78;5035519;28;45363;-72
2022/06/24 07:17:50;;;;;;;;;6.00;6.00;;;;;23.33;57.23;100412.22;5047543;28;45633;-80
2022/06/24 07:20:30;;;;;;;;;9.00;7.00;;;;;23.46;57.45;100411.41;5025213;28;46252;-72
2022/06/24 07:22:55;;;;;;;;;8.67;6.67;;;;;23.57;56.89;100402.81;5037502;28;45582;-70
2022/06/24 07:25:21;;;;;;;;;5.00;5.00;;;;;23.54;56.60;100383.38;5033735;28;45542;-70
2022/06/24 07:28:00;;;;;;;;;5.67;5.67;;;;;23.44;56.26;100353.66;5054701;28;46494;-69
2022/06/24 07:30:32;;;;;;;;;5.00;5.00;;;;;23.84;55.11;100394.16;5050933;28;45776;-76
2022/06/24 07:33:02;;;;;;;;;5.00;5.00;;;;;23.80;55.17;100389.94;5035253;28;45482;-73
2022/06/24 07:35:29;;;;;;;;;5.67;4.00;;;;;23.61;54.65;100350.00;5034776;28;45476;-73
2022/06/24 07:38:04;;;;;;;;;5.00;5.00;;;;;23.85;54.85;100391.41;5039254;28;45421;-73
2022/06/24 07:40:30;;;;;;;;;6.67;5.00;;;;;24.04;54.59;100388.50;5034348;28;46108;-71
2022/06/24 07:42:55;;;;;;;;;6.00;6.00;;;;;24.39;54.16;100393.50;5034422;28;45801;-72
2022/06/24 07:45:30;;;;;;;;;6.00;6.00;;;;;24.69;53.14;100397.97;5043655;28;45614;-72
2022/06/24 07:47:56;;;;;;;;;4.33;4.33;;;;;24.47;52.68;100382.41;5029940;28;45503;-73
2022/06/24 07:50:21;;;;;;;;;6.67;5.33;;;;;23.83;52.06;100283.66;5047690;28;45995;-72
2022/06/24 07:52:47;;;;;;;;;5.00;5.00;;;;;24.43;52.44;100387.03;5028049;28;45722;-72
2022/06/24 07:57:57;;;;;;;;;5.67;3.67;;;;;24.15;53.11;100362.91;5038037;28;45722;-71
2022/06/24 08:00:23;;;;;;;;;12.67;11.00;;;;;24.03;52.99;100348.44;5041908;28;45461;-73
2022/06/24 08:02:49;;;;;;;;;6.00;6.00;;;;;24.05;52.69;100376.81;5045639;28;45573;-73
2022/06/24 08:05:15;;;;;;;;;7.67;7.67;;;;;24.21;52.30;100371.44;5030398;28;45470;-72
2022/06/24 08:07:43;;;;;;;;;5.00;5.00;;;;;24.02;52.58;100328.03;5028509;28;45548;-73
2022/06/24 08:10:09;;;;;;;;;5.00;5.00;;;;;24.08;52.14;100323.16;5047962;28;46137;-74
2022/06/24 08:12:34;;;;;;;;;5.00;5.00;;;;;23.90;51.69;100326.94;5048558;28;45533;-73
2022/06/24 08:15:01;;;;;;;;;6.67;5.33;;;;;23.96;51.99;100366.69;5049225;28;45478;-71
2022/06/24 08:17:39;;;;;;;;;8.00;6.33;;;;;23.82;52.12;100361.28;5041629;28;45414;-75
2022/06/24 08:20:05;;;;;;;;;5.67;5.67;;;;;23.84;52.34;100378.09;5034206;28;46298;-73
2022/06/24 08:22:30;;;;;;;;;6.00;6.00;;;;;23.56;52.59;100347.59;5053585;28;45570;-73
2022/06/24 08:24:56;;;;;;;;;4.00;4.00;;;;;23.92;52.31;100383.88;5043304;28;45359;-71
2022/06/24 08:27:22;;;;;;;;;7.00;6.67;;;;;24.05;52.46;100367.94;5048778;28;45700;-73
2022/06/24 08:29:47;;;;;;;;;5.00;5.00;;;;;24.10;52.40;100358.69;5051803;28;45559;-71
2022/06/24 08:32:13;;;;;;;;;7.00;6.33;;;;;24.42;51.87;100389.81;5051053;28;45511;-73
2022/06/24 08:34:38;;;;;;;;;5.00;5.00;;;;;24.32;51.13;100381.47;5052616;28;45807;-73
2022/06/24 08:37:04;;;;;;;;;3.00;3.00;;;;;24.04;50.50;100326.97;5054467;28;45674;-74
2022/06/24 08:39:30;;;;;;;;;5.00;5.00;;;;;24.53;50.26;100377.50;5053908;28;45678;-72
2022/06/24 08:41:58;;;;;;;;;7.67;7.67;;;;;24.44;49.68;100321.84;5053864;28;45682;-77
2022/06/24 08:44:23;;;;;;;;;5.67;5.67;;;;;25.00;48.64;100380.84;5051649;28;45587;-73
2022/06/24 08:46:57;;;;;;;;;9.00;7.00;;;;;25.05;48.47;100378.72;5040920;28;45329;-71
2022/06/24 08:49:49;;;;;;;;;6.00;6.00;;;;;25.00;49.10;100371.94;5046402;28;46125;-72
2022/06/24 08:52:20;;;;;;;;;5.67;5.00;;;;;24.95;48.54;100378.44;5027416;28;45410;-72
2022/06/24 08:54:46;;;;;;;;;7.33;7.00;;;;;24.71;49.09;100334.47;5052950;28;45575;-75
2022/06/24 08:57:13;;;;;;;;;7.67;5.00;;;;;24.54;48.87;100325.69;5044668;28;45861;-74
2022/06/24 08:59:39;;;;;;;;;5.00;4.00;;;;;24.90;48.62;100364.50;5046341;28;45578;-73
2022/06/24 09:02:05;;;;;;;;;6.00;6.00;;;;;24.92;49.02;100357.22;5027312;28;45968;-76
2022/06/24 09:04:35;;;;;;;;;5.00;5.00;;;;;25.01;48.82;100352.22;5038619;28;45613;-72
2022/06/24 09:07:22;;;;;;;;;4.33;4.00;;;;;24.99;48.03;100352.34;5050008;28;45403;-75
2022/06/24 09:09:59;;;;;;;;;4.00;4.00;;;;;24.62;47.99;100293.06;5040668;28;46278;-73
2022/06/24 09:12:30;;;;;;;;;4.00;4.00;;;;;24.70;47.90;100293.47;5026494;28;45536;-75
2022/06/24 09:15:01;;;;;;;;;5.00;4.33;;;;;25.23;48.06;100336.50;5046187;28;45312;-71
2022/06/24 09:17:32;;;;;;;;;4.67;4.67;;;;;25.36;47.56;100336.56;5047123;28;45972;-75
2022/06/24 09:20:10;;;;;;;;;5.33;4.00;;;;;25.49;47.05;100318.69;5038479;28;46431;-72
2022/06/24 09:22:37;;;;;;;;;3.33;3.33;;;;;25.36;45.94;100305.22;5046716;28;45409;-73
2022/06/24 09:25:05;;;;;;;;;4.67;4.67;;;;;25.39;46.80;100328.31;5043443;28;45697;-74
2022/06/24 09:27:30;;;;;;;;;4.67;4.00;;;;;25.25;46.59;100331.03;5042923;28;45550;-72
2022/06/24 09:29:57;;;;;;;;;4.00;4.00;;;;;24.98;47.14;100299.69;5038034;28;45386;-73
2022/06/24 09:32:22;;;;;;;;;6.00;4.00;;;;;25.18;47.60;100301.97;5057585;28;46549;-74
2022/06/24 09:35:06;;;;;;;;;7.75;5.00;;;;;25.66;46.62;100311.34;5055507;28;45479;-75
2022/06/24 09:37:41;;;;;;;;;4.33;4.33;;;;;25.83;45.89;100308.34;5057544;28;45559;-74
2022/06/24 09:40:28;;;;;;;;;3.00;3.00;;;;;25.72;44.97;100314.47;5054277;28;46188;-73
2022/06/24 09:42:57;;;;;;;;;3.25;3.25;;;;;25.45;46.21;100310.97;5056919;28;45399;-74
2022/06/24 09:45:45;;;;;;;;;2.25;2.25;;;;;25.30;46.16;100284.22;5039197;28;45435;-74
2022/06/24 09:48:29;;;;;;;;;3.75;3.75;;;;;25.40;45.66;100300.53;5059269;28;45304;-74
2022/06/24 09:51:00;;;;;;;;;2.00;2.00;;;;;25.17;45.93;100302.03;5053907;28;45724;-73
2022/06/24 09:53:32;;;;;;;;;2.33;2.33;;;;;25.05;46.38;100311.72;5056755;28;45558;-75
2022/06/24 09:55:59;;;;;;;;;3.00;3.00;;;;;25.06;46.23;100316.16;5057670;28;45480;-73
2022/06/24 09:58:25;;;;;;;;;3.00;3.00;;;;;25.21;46.00;100308.09;5054232;28;45414;-74
2022/06/24 10:00:51;;;;;;;;;3.00;3.00;;;;;25.38;45.46;100294.41;5057529;28;46069;-74
2022/06/24 10:03:28;;;;;;;;;3.33;3.33;;;;;25.44;44.83;100248.44;5056838;28;45526;-73
2022/06/24 10:06:00;;;;;;;;;3.00;3.00;;;;;25.74;44.63;100290.22;5048959;28;45558;-73
2022/06/24 10:08:30;;;;;;;;;5.00;3.25;;;;;25.79;44.67;100313.09;5028307;28;45466;-73
2022/06/24 10:10:59;;;;;;;;;2.50;2.50;;;;;25.54;44.08;100283.53;5047384;28;45623;-73
2022/06/24 10:13:31;;;;;;;;;2.00;2.00;;;;;24.50;45.06;100192.97;5043860;28;45473;-74
2022/06/24 10:16:07;;;;;;;;;3.00;3.00;;;;;25.18;45.20;100299.28;5048902;28;45587;-73
2022/06/24 10:18:39;;;;;;;;;2.00;2.00;;;;;25.00;44.81;100273.66;5044849;28;45525;-76
2022/06/24 10:21:07;;;;;;;;;2.00;2.00;;;;;25.03;44.76;100280.63;5042505;28;45581;-73
2022/06/24 10:23:49;;;;;;;;;3.25;3.25;;;;;25.24;44.73;100278.41;5051828;28;45839;-74
2022/06/24 10:26:17;;;;;;;;;4.50;2.00;;;;;25.59;44.27;100302.84;5045572;28;45492;-74
2022/06/24 10:29:04;;;;;;;;;2.00;2.00;;;;;25.66;44.01;100304.16;5046319;28;45524;-72
2022/06/24 10:31:44;;;;;;;;;2.00;2.00;;;;;25.46;43.56;100308.19;5053548;28;45531;-71
2022/06/24 10:34:22;;;;;;;;;3.75;2.00;;;;;25.39;43.99;100307.72;5050210;28;45604;-75
2022/06/24 10:36:49;;;;;;;;;3.00;2.50;;;;;25.43;44.33;100286.94;5057384;28;45473;-71
2022/06/24 10:39:18;;;;;;;;;5.50;4.00;;;;;25.81;44.12;100296.88;5051365;28;46428;-72
2022/06/24 10:41:44;;;;;;;;;2.50;2.50;;;;;26.12;43.36;100301.00;5053660;28;46231;-73
2022/06/24 10:44:29;;;;;;;;;3.00;2.00;;;;;25.98;43.77;100275.16;5053213;28;45417;-73
2022/06/24 10:47:10;;;;;;;;;2.75;2.75;;;;;26.45;42.84;100297.75;5047931;28;45451;-71
2022/06/24 10:50:01;;;;;;;;;2.00;2.00;;;;;26.72;42.77;100278.00;5048868;28;45944;-72
2022/06/24 10:52:33;;;;;;;;;3.00;3.00;;;;;26.78;42.98;100287.41;5053298;28;46685;-73
2022/06/24 10:55:28;;;;;;;;;2.75;2.75;;;;;26.84;41.62;100287.84;5054677;28;45481;-74
2022/06/24 10:58:11;;;;;;;;;1.25;1.25;;;;;26.54;41.76;100266.75;5055323;28;45343;-73
2022/06/24 11:00:37;;;;;;;;;3.50;3.00;;;;;26.65;41.98;100282.94;5057774;28;45637;-72
2022/06/24 11:03:02;;;;;;;;;7.00;6.00;;;;;26.70;41.94;100287.13;5036730;28;45724;-74
2022/06/24 11:05:47;;;;;;;;;3.25;2.75;;;;;26.64;41.91;100275.00;5047312;28;45521;-74
2022/06/24 11:08:18;;;;;;;;;3.25;3.25;;;;;26.62;41.95;100277.81;5055688;28;45395;-74
2022/06/24 11:10:45;;;;;;;;;3.00;3.00;;;;;26.38;41.77;100292.94;5057620;28;45561;-74
2022/06/24 11:13:10;;;;;;;;;2.00;2.00;;;;;25.96;41.53;100287.81;5059731;28;45481;-74
2022/06/24 11:15:42;;;;;;;;;2.25;2.00;;;;;25.75;42.25;100295.47;5048827;28;45474;-74
2022/06/24 11:18:13;;;;;;;;;4.00;3.50;;;;;25.91;42.70;100281.03;5054679;28;45466;-72
2022/06/24 11:20:42;;;;;;;;;12.67;11.67;;;;;26.33;42.14;100287.91;5056290;28;45547;-72
2022/06/24 11:23:12;;;;;;;;;16.33;15.00;;;;;26.40;41.45;100267.69;5055130;28;45339;-74
2022/06/24 11:25:43;;;;;;;;;12.33;11.00;;;;;26.66;41.72;100281.09;5056319;28;45888;-74
2022/06/24 11:28:27;;;;;;;;;54.67;42.33;;;;;26.83;44.81;100285.25;5039377;28;45505;-71
2022/06/24 11:30:54;;;;;;;;;36.00;32.00;;;;;27.08;42.90;100278.94;5057551;28;45472;-72
2022/06/24 11:33:21;;;;;;;;;6.50;6.50;;;;;27.15;40.87;100268.59;5057404;28;45481;-72
2022/06/24 11:35:53;;;;;;;;;5.00;5.00;;;;;27.18;41.25;100273.72;5041256;28;45524;-71
2022/06/24 11:38:19;;;;;;;;;6.75;6.75;;;;;27.48;41.02;100287.59;5059628;28;45329;-72
2022/06/24 11:40:46;;;;;;;;;7.75;6.00;;;;;27.46;40.37;100254.56;5062302;28;45416;-72
2022/06/24 11:43:13;;;;;;;;;3.75;3.00;;;;;27.53;40.78;100279.16;5050213;28;45310;-73
2022/06/24 11:45:44;;;;;;;;;4.00;4.00;;;;;27.71;39.96;100287.66;5034176;28;45454;-74
2022/06/24 11:48:18;;;;;;;;;4.25;3.50;;;;;27.73;39.81;100269.56;5024626;28;45703;-76
2022/06/24 11:50:44;;;;;;;;;2.50;2.25;;;;;27.86;39.58;100286.50;5040638;28;45395;-72
2022/06/24 11:53:10;;;;;;;;;2.50;2.50;;;;;27.69;39.13;100277.03;5020544;28;45704;-73
2022/06/24 11:55:52;;;;;;;;;1.00;1.00;;;;;27.55;38.58;100285.28;5038884;28;45627;-70
2022/06/24 11:58:21;;;;;;;;;2.00;2.00;;;;;27.09;39.47;100264.50;5051198;28;45435;-70
2022/06/24 12:00:47;;;;;;;;;2.00;2.00;;;;;27.29;39.69;100281.88;5048489;28;45537;-73
2022/06/24 12:03:14;;;;;;;;;2.00;2.00;;;;;27.34;39.21;100290.47;5051333;28;45603;-72
2022/06/24 12:05:43;;;;;;;;;1.75;1.00;;;;;27.12;39.64;100276.88;5029153;28;45398;-71
2022/06/24 12:08:15;;;;;;;;;2.25;2.25;;;;;27.05;40.00;100252.25;5047930;28;45525;-72
2022/06/24 12:10:54;;;;;;;;;4.00;3.00;;;;;27.29;39.93;100281.88;5045709;28;45754;-73
2022/06/24 12:13:26;;;;;;;;;5.25;3.75;;;;;27.33;39.86;100261.00;5046983;28;46294;-70
2022/06/24 12:15:52;;;;;;;;;4.00;2.75;;;;;27.52;39.94;100282.81;5044939;28;46049;-69
2022/06/24 12:18:22;;;;;;;;;1.00;1.00;;;;;27.54;39.02;100277.31;5043166;28;45446;-70
2022/06/24 12:21:00;;;;;;;;;3.25;1.00;;;;;27.41;38.39;100280.97;5047326;28;45754;-70
2022/06/24 12:23:44;;;;;;;;;1.00;1.00;;;;;27.35;38.44;100262.59;5053313;28;46098;-71
2022/06/24 12:26:17;;;;;;;;;1.00;1.00;;;;;27.55;38.39;100276.34;5040407;28;45520;-72
2022/06/24 12:28:54;;;;;;;;;2.00;1.25;;;;;27.42;38.28;100261.16;5036854;28;45561;-70
2022/06/24 12:31:20;;;;;;;;;2.00;2.00;;;;;27.23;38.78;100282.34;5036040;28;45260;-72
2022/06/24 12:33:56;;;;;;;;;1.00;1.00;;;;;27.00;39.46;100236.50;5041175;28;45368;-70
2022/06/24 12:36:34;;;;;;;;;1.25;1.25;;;;;27.30;39.40;100262.09;5049630;28;45550;-71
2022/06/24 12:39:07;;;;;;;;;2.00;2.00;;;;;27.08;39.71;100252.06;5048353;28;45670;-72
2022/06/24 12:41:49;;;;;;;;;2.00;2.00;;;;;27.02;40.30;100271.31;5025944;28;45497;-73
2022/06/24 12:44:16;;;;;;;;;0.00;0.00;;;;;26.85;39.32;100226.88;5033533;28;46174;-72
2022/06/24 12:52:39;;;;;;;;;6.00;4.00;;;;;27.38;39.19;100239.97;5032954;28;45530;-71
2022/06/24 12:55:08;;;;;;;;;5.00;4.00;;;;;27.47;38.79;100223.16;5035491;28;46093;-70
2022/06/24 12:57:35;;;;;;;;;3.25;3.25;;;;;27.74;38.22;100238.13;5039488;28;45437;-71
2022/06/24 13:00:07;;;;;;;;;2.00;2.00;;;;;27.51;38.11;100224.63;5041391;28;45470;-71
2022/06/24 13:02:33;;;;;;;;;4.00;3.00;;;;;27.28;38.61;100224.53;5040924;28;45232;-72
2022/06/24 13:04:58;;;;;;;;;3.25;3.00;;;;;26.98;39.58;100241.16;5044661;28;46158;-70
2022/06/24 13:07:24;;;;;;;;;3.00;2.00;;;;;26.77;39.40;100218.56;5043124;28;45492;-70
2022/06/24 13:09:50;;;;;;;;;2.25;2.25;;;;;26.76;38.89;100214.97;5036639;28;45354;-69
2022/06/24 13:12:15;;;;;;;;;2.00;2.00;;;;;27.05;39.13;100237.03;5018391;28;45564;-71
2022/06/24 13:14:41;;;;;;;;;1.50;1.50;;;;;26.95;38.88;100225.22;5039902;28;45938;-70
2022/06/24 13:17:07;;;;;;;;;3.00;3.00;;;;;26.85;38.89;100233.13;5040966;28;45666;-71
2022/06/24 13:19:32;;;;;;;;;2.00;2.00;;;;;26.60;39.54;100239.44;5039233;28;45618;-71
2022/06/24 13:22:00;;;;;;;;;2.50;2.50;;;;;26.65;40.00;100247.19;5026183;28;45714;-70
2022/06/24 13:24:27;;;;;;;;;3.00;3.00;;;;;26.82;40.49;100245.94;5044122;28;45552;-71
2022/06/24 13:26:53;;;;;;;;;2.75;2.75;;;;;26.78;40.39;100255.19;5037230;28;45367;-70
2022/06/24 13:29:18;;;;;;;;;2.00;2.00;;;;;26.79;40.17;100251.50;5045003;28;45490;-71
2022/06/24 13:31:44;;;;;;;;;3.00;3.00;;;;;26.79;40.06;100249.72;5056754;28;45486;-72
2022/06/24 13:34:10;;;;;;;;;2.50;2.50;;;;;26.93;40.10;100255.88;5056361;28;46501;-72
2022/06/24 13:36:36;;;;;;;;;4.00;2.25;;;;;26.82;40.30;100254.00;5038601;28;45543;-72
2022/06/24 13:39:01;;;;;;;;;2.75;2.00;;;;;26.88;40.05;100261.59;5056791;28;45425;-70
2022/06/24 13:41:27;;;;;;;;;3.00;3.00;;;;;26.90;40.55;100273.09;5060453;28;45368;-70
2022/06/24 13:43:53;;;;;;;;;2.75;2.50;;;;;26.88;40.45;100268.78;5040917;28;46575;-71
2022/06/24 13:46:19;;;;;;;;;2.00;2.00;;;;;26.83;40.64;100250.31;5056808;28;45401;-71
2022/06/24 13:48:44;;;;;;;;;1.50;1.50;;;;;27.16;39.68;100278.34;5056261;28;45727;-71
2022/06/24 13:51:17;;;;;;;;;1.00;1.00;;;;;27.20;39.90;100266.44;5056876;28;45833;-71
2022/06/24 13:53:42;;;;;;;;;2.25;2.25;;;;;27.27;40.45;100271.25;5054844;28;46751;-71
2022/06/24 13:56:08;;;;;;;;;4.00;3.00;;;;;27.41;40.34;100283.66;5055950;28;45440;-71
2022/06/24 13:58:36;;;;;;;;;7.00;3.00;;;;;27.37;40.21;100281.31;5056668;28;45323;-71
2022/06/24 14:01:02;;;;;;;;;3.00;3.00;;;;;27.35;40.15;100284.09;5056308;28;45528;-71
2022/06/24 14:03:28;;;;;;;;;2.50;2.25;;;;;27.15;39.42;100271.28;5056526;28;45591;-72
2022/06/24 14:05:54;;;;;;;;;2.00;2.00;;;;;27.20;39.45;100278.06;5054955;28;46973;-71
2022/06/24 14:08:20;;;;;;;;;3.75;2.75;;;;;27.18;39.00;100260.28;5048549;28;45578;-69
2022/06/24 14:10:46;;;;;;;;;2.00;2.00;;;;;27.30;39.61;100275.53;5041632;28;45460;-72
2022/06/24 14:13:12;;;;;;;;;1.25;1.25;;;;;27.43;39.37;100270.94;5058815;28;46162;-73
2022/06/24 14:15:38;;;;;;;;;2.25;2.25;;;;;27.38;38.18;100283.84;5057005;28;45710;-71
2022/06/24 14:18:06;;;;;;;;;3.00;2.50;;;;;27.27;37.93;100287.38;5044893;28;45418;-72
2022/06/24 14:20:32;;;;;;;;;2.75;2.75;;;;;27.23;38.36;100279.66;5059979;28;45302;-72
2022/06/24 14:25:42;;;;;;;;;4.75;4.25;;;;;27.30;37.93;100271.97;5048022;28;45480;-72
2022/06/24 14:28:07;;;;;;;;;3.25;3.25;;;;;27.55;37.61;100273.66;5049830;28;45571;-72
2022/06/24 14:30:33;;;;;;;;;3.00;3.00;;;;;27.67;37.79;100273.59;5054352;28;45239;-71
2022/06/24 14:32:59;;;;;;;;;3.00;3.00;;;;;27.83;37.30;100267.03;5035205;28;45563;-71
2022/06/24 14:35:25;;;;;;;;;5.50;4.25;;;;;27.96;39.16;100258.88;5035486;28;45625;-68
2022/06/24 14:40:41;;;;;;;;;4.00;4.00;;;;;27.90;36.33;100234.16;5051995;28;45616;-74
2022/06/24 14:43:07;;;;;;;;;3.00;3.00;;;;;28.04;36.48;100261.81;5034450;28;47783;-74
2022/06/24 14:45:33;;;;;;;;;3.00;3.00;;;;;27.96;36.41;100266.97;5050937;28;45798;-71
2022/06/24 14:48:03;;;;;;;;;4.00;4.00;;;;;27.89;36.56;100259.34;5053641;28;45690;-74
2022/06/24 14:50:31;;;;;;;;;3.00;3.00;;;;;27.74;37.54;100265.91;5057851;28;45540;-75